sensor_id;sensor_type;location;lat;lon;timestamp;pressure;altitude;pressure_sealevel;temperature;humidity
5753;BME280;2901;42.140;24.760;2024-02-14T00:00:02;99036.38;;;9.13;100.00
5753;BME280;2901;42.140;24.760;2024-02-14T00:02:28;99057.06;;;9.13;100.00
5753;BME280;2901;42.140;24.760;2024-02-14T00:04:54;99054.47;;;9.13;100.00
5753;BME280;2901;42.140;24.760;2024-02-14T00:07:20;99051.91;;;9.10;100.00
5753;BME280;2901;42.140;24.760;2024-02-14T00:09:46;99057.91;;;9.14;100.00
5753;BME280;2901;42.140;24.760;2024-02-14T00:12:11;99051.91;;;9.12;100.00
5753;BME280;2901;42.140;24.760;2024-02-14T00:14:38;99051.00;;;9.16;100.00
5753;BME280;2901;42.140;24.760;2024-02-14T00:17:03;99062.19;;;9.16;100.00
5753;BME280;2901;42.140;24.760;2024-02-14T00:19:30;99061.31;;;9.20;100.00
5753;BME280;2901;42.140;24.760;2024-02-14T00:21:56;99063.03;;;9.20;100.00
5753;BME280;2901;42.140;24.760;2024-02-14T00:24:21;99063.06;;;9.18;100.00
5753;BME280;2901;42.140;24.760;2024-02-14T00:26:48;99063.00;;;9.23;100.00
5753;BME280;2901;42.140;24.760;2024-02-14T00:29:14;99071.63;;;9.20;100.00
5753;BME280;2901;42.140;24.760;2024-02-14T00:31:39;99070.81;;;9.18;100.00
5753;BME280;2901;42.140;24.760;2024-02-14T00:34:04;99069.03;;;9.23;100.00
5753;BME280;2901;42.140;24.760;2024-02-14T00:36:30;99073.34;;;9.24;100.00
5753;BME280;2901;42.140;24.760;2024-02-14T00:38:55;99074.19;;;9.23;100.00
5753;BME280;2901;42.140;24.760;2024-02-14T00:41:21;99075.88;;;9.26;100.00
5753;BME280;2901;42.140;24.760;2024-02-14T00:43:46;99075.03;;;9.28;100.00
5753;BME280;2901;42.140;24.760;2024-02-14T00:46:17;99072.38;;;9.33;100.00
5753;BME280;2901;42.140;24.760;2024-02-14T00:48:43;99068.94;;;9.32;100.00
5753;BME280;2901;42.140;24.760;2024-02-14T00:51:10;99065.56;;;9.27;100.00
5753;BME280;2901;42.140;24.760;2024-02-14T00:53:35;99060.41;;;9.23;100.00
5753;BME280;2901;42.140;24.760;2024-02-14T00:56:00;99065.56;;;9.27;100.00
5753;BME280;2901;42.140;24.760;2024-02-14T00:58:26;99072.47;;;9.24;100.00
5753;BME280;2901;42.140;24.760;2024-02-14T01:00:51;99071.63;;;9.22;100.00
5753;BME280;2901;42.140;24.760;2024-02-14T01:03:17;99074.25;;;9.17;100.00
5753;BME280;2901;42.140;24.760;2024-02-14T01:05:42;99073.38;;;9.17;100.00
5753;BME280;2901;42.140;24.760;2024-02-14T01:08:08;99068.25;;;9.15;100.00
5753;BME280;2901;42.140;24.760;2024-02-14T01:10:33;99073.38;;;9.17;100.00
5753;BME280;2901;42.140;24.760;2024-02-14T01:12:59;99061.34;;;9.14;100.00
5753;BME280;2901;42.140;24.760;2024-02-14T01:15:24;99082.84;;;9.16;100.00
5753;BME280;2901;42.140;24.760;2024-02-14T01:17:50;99068.28;;;9.11;100.00
5753;BME280;2901;42.140;24.760;2024-02-14T01:20:15;99082.91;;;9.12;100.00
5753;BME280;2901;42.140;24.760;2024-02-14T01:22:40;99077.72;;;9.15;100.00
5753;BME280;2901;42.140;24.760;2024-02-14T01:25:06;99081.16;;;9.12;100.00
5753;BME280;2901;42.140;24.760;2024-02-14T01:27:32;99082.00;;;9.17;100.00
5753;BME280;2901;42.140;24.760;2024-02-14T01:29:57;99073.41;;;9.12;100.00
5753;BME280;2901;42.140;24.760;2024-02-14T01:32:23;99083.75;;;9.15;100.00
5753;BME280;2901;42.140;24.760;2024-02-14T01:34:48;99094.06;;;9.15;100.00
5753;BME280;2901;42.140;24.760;2024-02-14T01:37:14;99080.34;;;9.09;100.00
5753;BME280;2901;42.140;24.760;2024-02-14T01:39:39;99082.03;;;9.11;100.00
5753;BME280;2901;42.140;24.760;2024-02-14T01:42:05;99084.63;;;9.11;100.00
5753;BME280;2901;42.140;24.760;2024-02-14T01:44:33;99071.75;;;9.07;100.00
5753;BME280;2901;42.140;24.760;2024-02-14T01:46:59;99076.84;;;9.13;100.00
5753;BME280;2901;42.140;24.760;2024-02-14T01:49:24;99082.03;;;9.11;100.00
5753;BME280;2901;42.140;24.760;2024-02-14T01:51:58;99083.72;;;9.17;100.00
5753;BME280;2901;42.140;24.760;2024-02-14T01:54:25;99076.00;;;9.14;100.00
5753;BME280;2901;42.140;24.760;2024-02-14T01:56:52;99082.06;;;9.08;100.00
5753;BME280;2901;42.140;24.760;2024-02-14T01:59:17;99083.72;;;9.17;100.00
5753;BME280;2901;42.140;24.760;2024-02-14T02:01:43;99088.00;;;9.19;100.00
5753;BME280;2901;42.140;24.760;2024-02-14T02:04:09;99088.03;;;9.13;100.00
5753;BME280;2901;42.140;24.760;2024-02-14T02:06:34;99074.31;;;9.11;100.00
5753;BME280;2901;42.140;24.760;2024-02-14T02:09:00;99095.75;;;9.21;100.00
5753;BME280;2901;42.140;24.760;2024-02-14T02:11:26;99090.59;;;9.18;100.00
5753;BME280;2901;42.140;24.760;2024-02-14T02:13:52;99105.19;;;9.25;100.00
5753;BME280;2901;42.140;24.760;2024-02-14T02:16:17;99098.28;;;9.25;100.00
5753;BME280;2901;42.140;24.760;2024-02-14T02:18:44;99101.75;;;9.23;100.00
5753;BME280;2901;42.140;24.760;2024-02-14T02:21:10;99106.06;;;9.19;100.00
5753;BME280;2901;42.140;24.760;2024-02-14T02:23:38;99112.13;;;9.17;100.00
5753;BME280;2901;42.140;24.760;2024-02-14T02:26:06;99115.56;;;9.17;100.00
5753;BME280;2901;42.140;24.760;2024-02-14T02:28:31;99119.00;;;9.21;100.00
5753;BME280;2901;42.140;24.760;2024-02-14T02:30:56;99119.84;;;9.20;100.00
5753;BME280;2901;42.140;24.760;2024-02-14T02:33:22;99123.31;;;9.17;100.00
5753;BME280;2901;42.140;24.760;2024-02-14T02:35:48;99127.66;;;9.15;100.00
5753;BME280;2901;42.140;24.760;2024-02-14T02:38:15;99133.66;;;9.16;100.00
5753;BME280;2901;42.140;24.760;2024-02-14T02:40:41;99123.41;;;9.08;100.00
5753;BME280;2901;42.140;24.760;2024-02-14T02:43:06;99128.56;;;9.05;100.00
5753;BME280;2901;42.140;24.760;2024-02-14T02:45:32;99128.59;;;9.02;100.00
5753;BME280;2901;42.140;24.760;2024-02-14T02:47:57;99137.22;;;8.98;100.00
5753;BME280;2901;42.140;24.760;2024-02-14T02:50:23;99144.09;;;9.02;100.00
5753;BME280;2901;42.140;24.760;2024-02-14T02:52:48;99138.94;;;9.02;100.00
5753;BME280;2901;42.140;24.760;2024-02-14T02:55:14;99132.91;;;9.00;100.00
5753;BME280;2901;42.140;24.760;2024-02-14T02:57:44;99148.34;;;9.06;100.00
5753;BME280;2901;42.140;24.760;2024-02-14T03:00:10;99141.50;;;9.01;100.00
5753;BME280;2901;42.140;24.760;2024-02-14T03:02:38;99143.22;;;9.03;100.00
5753;BME280;2901;42.140;24.760;2024-02-14T03:05:05;99144.94;;;9.00;100.00
5753;BME280;2901;42.140;24.760;2024-02-14T03:07:36;99150.97;;;9.02;100.00
5753;BME280;2901;42.140;24.760;2024-02-14T03:10:02;99158.69;;;9.06;100.00
5753;BME280;2901;42.140;24.760;2024-02-14T03:12:29;99153.53;;;9.03;100.00
5753;BME280;2901;42.140;24.760;2024-02-14T03:14:56;99163.00;;;9.04;100.00
5753;BME280;2901;42.140;24.760;2024-02-14T03:17:23;99158.69;;;9.06;100.00
5753;BME280;2901;42.140;24.760;2024-02-14T03:19:48;99168.16;;;9.07;100.00
5753;BME280;2901;42.140;24.760;2024-02-14T03:22:17;99178.47;;;9.07;100.00
5753;BME280;2901;42.140;24.760;2024-02-14T03:24:44;99170.78;;;9.01;100.00
5753;BME280;2901;42.140;24.760;2024-02-14T03:27:12;99171.63;;;9.03;100.00
5753;BME280;2901;42.140;24.760;2024-02-14T03:29:37;99175.09;;;8.96;100.00
5753;BME280;2901;42.140;24.760;2024-02-14T03:32:05;99179.38;;;9.00;100.00
5753;BME280;2901;42.140;24.760;2024-02-14T03:34:31;99176.84;;;8.96;100.00
5753;BME280;2901;42.140;24.760;2024-02-14T03:36:59;99182.00;;;8.94;100.00
5753;BME280;2901;42.140;24.760;2024-02-14T03:39:25;99182.88;;;8.95;100.00
5753;BME280;2901;42.140;24.760;2024-02-14T03:41:51;99184.56;;;8.93;100.00
5753;BME280;2901;42.140;24.760;2024-02-14T03:44:18;99170.84;;;8.83;100.00
5753;BME280;2901;42.140;24.760;2024-02-14T03:46:43;99187.16;;;8.96;100.00
5753;BME280;2901;42.140;24.760;2024-02-14T03:49:08;99189.75;;;8.99;100.00
5753;BME280;2901;42.140;24.760;2024-02-14T03:51:34;99189.75;;;8.91;100.00
5753;BME280;2901;42.140;24.760;2024-02-14T03:53:59;99193.19;;;8.93;100.00
5753;BME280;2901;42.140;24.760;2024-02-14T03:56:24;99194.06;;;8.91;100.00
5753;BME280;2901;42.140;24.760;2024-02-14T03:58:51;99201.84;;;8.89;100.00
5753;BME280;2901;42.140;24.760;2024-02-14T04:01:17;99196.66;;;8.89;100.00
5753;BME280;2901;42.140;24.760;2024-02-14T04:03:42;99208.69;;;8.93;100.00
5753;BME280;2901;42.140;24.760;2024-02-14T04:06:07;99211.28;;;8.92;100.00
5753;BME280;2901;42.140;24.760;2024-02-14T04:08:33;99211.28;;;8.89;100.00
5753;BME280;2901;42.140;24.760;2024-02-14T04:10:58;99212.16;;;8.86;100.00
5753;BME280;2901;42.140;24.760;2024-02-14T04:13:24;99211.28;;;8.89;100.00
5753;BME280;2901;42.140;24.760;2024-02-14T04:15:49;99213.88;;;8.87;100.00
5753;BME280;2901;42.140;24.760;2024-02-14T04:18:15;99212.16;;;8.92;100.00
5753;BME280;2901;42.140;24.760;2024-02-14T04:20:43;99222.47;;;8.95;100.00
5753;BME280;2901;42.140;24.760;2024-02-14T04:23:09;99223.31;;;8.93;100.00
5753;BME280;2901;42.140;24.760;2024-02-14T04:25:35;99223.28;;;8.97;100.00
5753;BME280;2901;42.140;24.760;2024-02-14T04:28:02;99222.47;;;8.92;100.00
5753;BME280;2901;42.140;24.760;2024-02-14T04:30:28;99225.91;;;8.94;100.00
5753;BME280;2901;42.140;24.760;2024-02-14T04:32:53;99224.16;;;8.93;100.00
5753;BME280;2901;42.140;24.760;2024-02-14T04:35:22;99227.59;;;8.97;100.00
5753;BME280;2901;42.140;24.760;2024-02-14T04:37:47;99229.31;;;9.02;100.00
5753;BME280;2901;42.140;24.760;2024-02-14T04:40:14;99237.03;;;9.04;100.00
5753;BME280;2901;42.140;24.760;2024-02-14T04:42:43;99236.16;;;9.06;100.00
5753;BME280;2901;42.140;24.760;2024-02-14T04:45:09;99242.19;;;9.07;100.00
5753;BME280;2901;42.140;24.760;2024-02-14T04:47:35;99228.41;;;9.09;100.00
5753;BME280;2901;42.140;24.760;2024-02-14T04:50:01;99237.03;;;9.07;100.00
5753;BME280;2901;42.140;24.760;2024-02-14T04:52:29;99240.47;;;9.07;100.00
5753;BME280;2901;42.140;24.760;2024-02-14T04:54:54;99242.19;;;9.07;100.00
5753;BME280;2901;42.140;24.760;2024-02-14T04:57:21;99245.63;;;9.07;100.00
5753;BME280;2901;42.140;24.760;2024-02-14T04:59:46;99243.91;;;9.11;100.00
5753;BME280;2901;42.140;24.760;2024-02-14T05:02:12;99254.19;;;9.12;100.00
5753;BME280;2901;42.140;24.760;2024-02-14T05:04:37;99255.09;;;9.11;100.00
5753;BME280;2901;42.140;24.760;2024-02-14T05:07:04;99244.78;;;9.08;100.00
5753;BME280;2901;42.140;24.760;2024-02-14T05:09:30;99246.50;;;9.06;100.00
5753;BME280;2901;42.140;24.760;2024-02-14T05:11:55;99253.41;;;9.04;100.00
5753;BME280;2901;42.140;24.760;2024-02-14T05:14:21;99262.84;;;9.07;100.00
5753;BME280;2901;42.140;24.760;2024-02-14T05:16:46;99257.69;;;9.04;100.00
5753;BME280;2901;42.140;24.760;2024-02-14T05:19:12;99255.97;;;9.03;100.00
5753;BME280;2901;42.140;24.760;2024-02-14T05:21:38;99270.59;;;9.08;100.00
5753;BME280;2901;42.140;24.760;2024-02-14T05:24:03;99267.16;;;9.03;100.00
5753;BME280;2901;42.140;24.760;2024-02-14T05:26:29;99274.91;;;9.05;100.00
5753;BME280;2901;42.140;24.760;2024-02-14T05:28:55;99268.03;;;8.99;99.95
5753;BME280;2901;42.140;24.760;2024-02-14T05:31:20;99268.03;;;9.08;100.00
5753;BME280;2901;42.140;24.760;2024-02-14T05:33:45;99284.38;;;9.09;100.00
5753;BME280;2901;42.140;24.760;2024-02-14T05:36:11;99274.88;;;9.12;100.00
5753;BME280;2901;42.140;24.760;2024-02-14T05:38:36;99280.91;;;9.13;100.00
5753;BME280;2901;42.140;24.760;2024-02-14T05:41:01;99285.22;;;9.15;99.92
5753;BME280;2901;42.140;24.760;2024-02-14T05:43:27;99286.03;;;9.16;100.00
5753;BME280;2901;42.140;24.760;2024-02-14T05:45:52;99285.22;;;9.15;99.87
5753;BME280;2901;42.140;24.760;2024-02-14T05:48:19;99292.94;;;9.21;99.47
5753;BME280;2901;42.140;24.760;2024-02-14T05:50:44;99303.25;;;9.24;98.93
5753;BME280;2901;42.140;24.760;2024-02-14T05:53:10;99303.22;;;9.29;98.98
5753;BME280;2901;42.140;24.760;2024-02-14T05:55:37;99296.31;;;9.29;98.18
5753;BME280;2901;42.140;24.760;2024-02-14T05:58:03;99300.59;;;9.36;97.68
5753;BME280;2901;42.140;24.760;2024-02-14T06:00:28;99314.34;;;9.43;97.38
5753;BME280;2901;42.140;24.760;2024-02-14T06:02:54;99314.34;;;9.46;97.16
5753;BME280;2901;42.140;24.760;2024-02-14T06:05:20;99316.03;;;9.49;97.24
5753;BME280;2901;42.140;24.760;2024-02-14T06:07:45;99316.09;;;9.41;96.54
5753;BME280;2901;42.140;24.760;2024-02-14T06:10:11;99322.06;;;9.49;96.79
5753;BME280;2901;42.140;24.760;2024-02-14T06:12:36;99328.94;;;9.58;96.17
5753;BME280;2901;42.140;24.760;2024-02-14T06:15:02;99339.25;;;9.61;96.56
5753;BME280;2901;42.140;24.760;2024-02-14T06:17:27;99327.22;;;9.57;95.84
5753;BME280;2901;42.140;24.760;2024-02-14T06:19:53;99329.75;;;9.64;96.17
5753;BME280;2901;42.140;24.760;2024-02-14T06:22:19;99348.72;;;9.63;95.16
5753;BME280;2901;42.140;24.760;2024-02-14T06:24:45;99346.13;;;9.62;95.18
5753;BME280;2901;42.140;24.760;2024-02-14T06:27:13;99328.06;;;9.57;96.17
5753;BME280;2901;42.140;24.760;2024-02-14T06:29:42;99343.56;;;9.59;94.53
5753;BME280;2901;42.140;24.760;2024-02-14T06:32:07;99355.63;;;9.64;95.66
5753;BME280;2901;42.140;24.760;2024-02-14T06:34:33;99355.56;;;9.69;95.62
5753;BME280;2901;42.140;24.760;2024-02-14T06:36:58;99357.28;;;9.68;94.91
5753;BME280;2901;42.140;24.760;2024-02-14T06:39:23;99346.06;;;9.72;94.22
5753;BME280;2901;42.140;24.760;2024-02-14T06:41:49;99361.56;;;9.80;95.00
5753;BME280;2901;42.140;24.760;2024-02-14T06:44:15;99364.13;;;9.80;93.83
5753;BME280;2901;42.140;24.760;2024-02-14T06:46:40;99361.53;;;9.84;94.48
5753;BME280;2901;42.140;24.760;2024-02-14T06:49:07;99367.53;;;9.89;94.01
5753;BME280;2901;42.140;24.760;2024-02-14T06:51:32;99373.56;;;9.88;93.15
5753;BME280;2901;42.140;24.760;2024-02-14T06:53:58;99364.91;;;9.93;93.37
5753;BME280;2901;42.140;24.760;2024-02-14T06:56:24;99375.28;;;9.88;92.92
5753;BME280;2901;42.140;24.760;2024-02-14T06:58:49;99383.09;;;9.83;93.60
5753;BME280;2901;42.140;24.760;2024-02-14T07:01:19;99389.13;;;9.84;92.71
5753;BME280;2901;42.140;24.760;2024-02-14T07:03:48;99390.81;;;9.85;93.75
5753;BME280;2901;42.140;24.760;2024-02-14T07:06:14;99394.31;;;9.79;92.33
5753;BME280;2901;42.140;24.760;2024-02-14T07:08:42;99389.97;;;9.84;93.45
5753;BME280;2901;42.140;24.760;2024-02-14T07:11:08;99398.56;;;9.85;92.78
5753;BME280;2901;42.140;24.760;2024-02-14T07:13:33;99389.13;;;9.84;93.06
5753;BME280;2901;42.140;24.760;2024-02-14T07:15:58;99402.06;;;9.84;92.54
5753;BME280;2901;42.140;24.760;2024-02-14T07:18:24;99403.75;;;9.85;92.68
5753;BME280;2901;42.140;24.760;2024-02-14T07:20:49;99405.47;;;9.87;93.47
5753;BME280;2901;42.140;24.760;2024-02-14T07:23:17;99404.63;;;9.84;92.74
5753;BME280;2901;42.140;24.760;2024-02-14T07:25:42;99420.97;;;9.89;93.95
5753;BME280;2901;42.140;24.760;2024-02-14T07:28:08;99418.38;;;9.92;93.35
5753;BME280;2901;42.140;24.760;2024-02-14T07:30:35;99423.50;;;9.98;94.23
5753;BME280;2901;42.140;24.760;2024-02-14T07:33:00;99420.94;;;9.92;94.32
5753;BME280;2901;42.140;24.760;2024-02-14T07:35:26;99429.59;;;9.88;94.04
5753;BME280;2901;42.140;24.760;2024-02-14T07:37:51;99438.25;;;9.84;93.38
5753;BME280;2901;42.140;24.760;2024-02-14T07:40:17;99441.69;;;9.81;93.61
5753;BME280;2901;42.140;24.760;2024-02-14T07:42:42;99421.03;;;9.77;93.65
5753;BME280;2901;42.140;24.760;2024-02-14T07:45:08;99444.25;;;9.89;94.19
5753;BME280;2901;42.140;24.760;2024-02-14T07:47:33;99444.22;;;9.92;93.99
5753;BME280;2901;42.140;24.760;2024-02-14T07:49:58;99444.28;;;9.80;92.42
5753;BME280;2901;42.140;24.760;2024-02-14T07:52:24;99449.44;;;9.83;92.72
5753;BME280;2901;42.140;24.760;2024-02-14T07:54:53;99447.72;;;9.85;92.57
5753;BME280;2901;42.140;24.760;2024-02-14T07:57:21;99442.53;;;9.86;92.88
5753;BME280;2901;42.140;24.760;2024-02-14T07:59:47;99448.53;;;9.93;92.88
5753;BME280;2901;42.140;24.760;2024-02-14T08:02:12;99459.72;;;9.98;91.08
5753;BME280;2901;42.140;24.760;2024-02-14T08:04:38;99459.78;;;9.90;91.14
5753;BME280;2901;42.140;24.760;2024-02-14T08:07:03;99469.22;;;10.01;91.65
5753;BME280;2901;42.140;24.760;2024-02-14T08:09:29;99446.78;;;10.03;91.12
5753;BME280;2901;42.140;24.760;2024-02-14T08:11:54;99460.53;;;10.09;89.23
5753;BME280;2901;42.140;24.760;2024-02-14T08:14:20;99466.56;;;10.16;89.90
5753;BME280;2901;42.140;24.760;2024-02-14T08:16:45;99464.84;;;10.13;88.57
5753;BME280;2901;42.140;24.760;2024-02-14T08:19:10;99464.03;;;10.01;88.39
5753;BME280;2901;42.140;24.760;2024-02-14T08:21:36;99467.41;;;10.12;87.80
5753;BME280;2901;42.140;24.760;2024-02-14T08:24:01;99467.44;;;10.09;88.52
5753;BME280;2901;42.140;24.760;2024-02-14T08:26:27;99477.81;;;10.07;87.46
5753;BME280;2901;42.140;24.760;2024-02-14T08:28:52;99482.06;;;10.11;88.53
5753;BME280;2901;42.140;24.760;2024-02-14T08:31:19;99488.16;;;10.04;88.16
5753;BME280;2901;42.140;24.760;2024-02-14T08:33:45;99489.03;;;10.03;88.07
5753;BME280;2901;42.140;24.760;2024-02-14T08:36:10;99485.53;;;10.09;88.55
5753;BME280;2901;42.140;24.760;2024-02-14T08:38:36;99487.31;;;9.99;87.70
5753;BME280;2901;42.140;24.760;2024-02-14T08:41:02;99489.06;;;9.97;87.78
5753;BME280;2901;42.140;24.760;2024-02-14T08:43:29;99495.09;;;10.01;88.06
5753;BME280;2901;42.140;24.760;2024-02-14T08:45:55;99498.50;;;10.07;89.05
5753;BME280;2901;42.140;24.760;2024-02-14T08:48:21;99493.31;;;10.16;88.21
5753;BME280;2901;42.140;24.760;2024-02-14T08:50:46;99495.88;;;10.13;87.40
5753;BME280;2901;42.140;24.760;2024-02-14T08:53:12;99499.31;;;10.12;87.68
5753;BME280;2901;42.140;24.760;2024-02-14T08:55:39;99489.91;;;10.04;87.70
5753;BME280;2901;42.140;24.760;2024-02-14T08:58:05;99507.97;;;10.07;88.41
5753;BME280;2901;42.140;24.760;2024-02-14T09:00:30;99515.72;;;10.13;88.50
5753;BME280;2901;42.140;24.760;2024-02-14T09:02:56;99507.97;;;10.17;88.32
5753;BME280;2901;42.140;24.760;2024-02-14T09:05:22;99507.94;;;10.22;88.82
5753;BME280;2901;42.140;24.760;2024-02-14T09:07:47;99516.56;;;10.24;88.04
5753;BME280;2901;42.140;24.760;2024-02-14T09:10:13;99517.44;;;10.12;88.28
5753;BME280;2901;42.140;24.760;2024-02-14T09:12:39;99512.28;;;10.17;88.55
5753;BME280;2901;42.140;24.760;2024-02-14T09:15:06;99521.75;;;10.19;88.94
5753;BME280;2901;42.140;24.760;2024-02-14T09:17:32;99528.66;;;10.20;89.51
5753;BME280;2901;42.140;24.760;2024-02-14T09:19:57;99520.91;;;10.20;89.60
5753;BME280;2901;42.140;24.760;2024-02-14T09:22:23;99528.66;;;10.19;89.00
5753;BME280;2901;42.140;24.760;2024-02-14T09:24:49;99538.16;;;10.11;88.67
5753;BME280;2901;42.140;24.760;2024-02-14T09:27:15;99536.41;;;10.13;90.08
5753;BME280;2901;42.140;24.760;2024-02-14T09:29:40;99532.97;;;10.12;91.03
5753;BME280;2901;42.140;24.760;2024-02-14T09:32:06;99533.84;;;10.05;92.26
5753;BME280;2901;42.140;24.760;2024-02-14T09:34:31;99536.47;;;10.04;92.59
5753;BME280;2901;42.140;24.760;2024-02-14T09:36:57;99514.94;;;9.89;92.97
5753;BME280;2901;42.140;24.760;2024-02-14T09:39:24;99512.34;;;9.94;94.57
5753;BME280;2901;42.140;24.760;2024-02-14T09:41:55;99530.47;;;9.94;94.97
5753;BME280;2901;42.140;24.760;2024-02-14T09:44:27;99527.88;;;9.89;96.33
5753;BME280;2901;42.140;24.760;2024-02-14T09:46:54;99519.25;;;9.89;97.18
5753;BME280;2901;42.140;24.760;2024-02-14T09:49:21;99514.94;;;9.89;97.99
5753;BME280;2901;42.140;24.760;2024-02-14T09:51:48;99517.53;;;9.88;98.73
5753;BME280;2901;42.140;24.760;2024-02-14T09:54:15;99511.47;;;9.95;98.70
5753;BME280;2901;42.140;24.760;2024-02-14T09:56:43;99516.63;;;9.98;99.89
5753;BME280;2901;42.140;24.760;2024-02-14T09:59:09;99513.19;;;9.96;98.14
5753;BME280;2901;42.140;24.760;2024-02-14T10:01:35;99522.66;;;10.03;100.00
5753;BME280;2901;42.140;24.760;2024-02-14T10:04:00;99519.16;;;10.09;100.00
5753;BME280;2901;42.140;24.760;2024-02-14T10:06:25;99507.94;;;10.13;99.30
5753;BME280;2901;42.140;24.760;2024-02-14T10:08:51;99504.50;;;10.12;98.03
5753;BME280;2901;42.140;24.760;2024-02-14T10:11:17;99495.88;;;10.12;98.55
5753;BME280;2901;42.140;24.760;2024-02-14T10:13:46;99522.53;;;10.39;99.49
5753;BME280;2901;42.140;24.760;2024-02-14T10:16:16;99521.63;;;10.47;97.78
5753;BME280;2901;42.140;24.760;2024-02-14T10:18:43;99525.94;;;10.45;95.01
5753;BME280;2901;42.140;24.760;2024-02-14T10:21:13;99525.03;;;10.52;96.51
5753;BME280;2901;42.140;24.760;2024-02-14T10:23:39;99518.13;;;10.48;95.92
5753;BME280;2901;42.140;24.760;2024-02-14T10:26:04;99521.66;;;10.36;93.50
5753;BME280;2901;42.140;24.760;2024-02-14T10:28:32;99525.16;;;10.33;93.13
5753;BME280;2901;42.140;24.760;2024-02-14T10:30:58;99519.91;;;10.43;94.65
5753;BME280;2901;42.140;24.760;2024-02-14T10:33:27;99516.41;;;10.53;93.99
5753;BME280;2901;42.140;24.760;2024-02-14T10:35:54;99508.63;;;10.56;91.64
5753;BME280;2901;42.140;24.760;2024-02-14T10:38:22;99512.94;;;10.55;91.91
5753;BME280;2901;42.140;24.760;2024-02-14T10:40:49;99515.53;;;10.57;89.77
5753;BME280;2901;42.140;24.760;2024-02-14T10:43:16;99505.06;;;10.69;89.74
5753;BME280;2901;42.140;24.760;2024-02-14T10:45:42;99499.88;;;10.70;87.82
5753;BME280;2901;42.140;24.760;2024-02-14T10:48:11;99496.31;;;10.83;90.50
5753;BME280;2901;42.140;24.760;2024-02-14T10:50:41;99491.94;;;10.93;88.63
5753;BME280;2901;42.140;24.760;2024-02-14T10:53:13;99490.31;;;10.81;85.91
5753;BME280;2901;42.140;24.760;2024-02-14T10:55:40;99506.59;;;10.94;87.37
5753;BME280;2901;42.140;24.760;2024-02-14T10:58:07;99499.69;;;10.96;84.55
5753;BME280;2901;42.140;24.760;2024-02-14T11:00:33;99504.78;;;11.04;85.54
5753;BME280;2901;42.140;24.760;2024-02-14T11:02:59;99494.47;;;11.02;86.38
5753;BME280;2901;42.140;24.760;2024-02-14T11:05:26;99493.59;;;11.02;85.29
5753;BME280;2901;42.140;24.760;2024-02-14T11:07:51;99496.03;;;11.18;87.54
5753;BME280;2901;42.140;24.760;2024-02-14T11:10:21;99501.81;;;11.48;86.08
5753;BME280;2901;42.140;24.760;2024-02-14T11:12:48;99492.19;;;11.59;83.33
5753;BME280;2901;42.140;24.760;2024-02-14T11:15:17;99495.59;;;11.64;82.35
5753;BME280;2901;42.140;24.760;2024-02-14T11:17:44;99477.31;;;11.76;84.48
5753;BME280;2901;42.140;24.760;2024-02-14T11:22:38;99496.78;;;12.09;80.13
5753;BME280;2901;42.140;24.760;2024-02-14T11:25:07;99486.59;;;11.96;80.69
5753;BME280;2901;42.140;24.760;2024-02-14T11:27:35;99490.66;;;12.17;79.98
5753;BME280;2901;42.140;24.760;2024-02-14T11:30:00;99490.56;;;12.22;77.96
5753;BME280;2901;42.140;24.760;2024-02-14T11:32:28;99501.25;;;12.01;77.69
5753;BME280;2901;42.140;24.760;2024-02-14T11:34:54;99493.47;;;11.99;78.02
5753;BME280;2901;42.140;24.760;2024-02-14T11:37:27;99511.75;;;11.90;78.50
5753;BME280;2901;42.140;24.760;2024-02-14T11:39:52;99480.69;;;11.85;78.40
5753;BME280;2901;42.140;24.760;2024-02-14T11:42:21;99483.00;;;12.08;77.72
5753;BME280;2901;42.140;24.760;2024-02-14T11:44:46;99499.63;;;11.89;76.98
5753;BME280;2901;42.140;24.760;2024-02-14T11:47:12;99501.44;;;11.84;77.93
5753;BME280;2901;42.140;24.760;2024-02-14T11:49:37;99500.69;;;11.73;78.33
5753;BME280;2901;42.140;24.760;2024-02-14T11:52:04;99488.59;;;11.75;77.95
5753;BME280;2901;42.140;24.760;2024-02-14T11:54:30;99497.28;;;11.68;77.89
5753;BME280;2901;42.140;24.760;2024-02-14T11:56:55;99495.38;;;11.83;78.85
5753;BME280;2901;42.140;24.760;2024-02-14T11:59:22;99494.44;;;11.90;77.77
5753;BME280;2901;42.140;24.760;2024-02-14T12:01:48;99503.16;;;11.85;77.19
5753;BME280;2901;42.140;24.760;2024-02-14T12:04:20;99501.63;;;11.63;77.18
5753;BME280;2901;42.140;24.760;2024-02-14T12:06:46;99483.00;;;11.29;78.67
5753;BME280;2901;42.140;24.760;2024-02-14T12:09:12;99506.09;;;11.52;78.44
5753;BME280;2901;42.140;24.760;2024-02-14T12:11:39;99504.41;;;11.48;77.08
5753;BME280;2901;42.140;24.760;2024-02-14T12:14:09;99508.59;;;11.59;76.44
5753;BME280;2901;42.140;24.760;2024-02-14T12:16:38;99505.06;;;11.68;77.46
5753;BME280;2901;42.140;24.760;2024-02-14T12:19:10;99491.13;;;11.78;77.31
5753;BME280;2901;42.140;24.760;2024-02-14T12:21:40;99493.53;;;11.93;76.56
5753;BME280;2901;42.140;24.760;2024-02-14T12:24:13;99520.56;;;11.74;74.78
5753;BME280;2901;42.140;24.760;2024-02-14T12:26:40;99516.41;;;11.56;75.21
5753;BME280;2901;42.140;24.760;2024-02-14T12:29:07;99511.97;;;11.66;76.12
5753;BME280;2901;42.140;24.760;2024-02-14T12:31:34;99503.16;;;11.83;74.54
5753;BME280;2901;42.140;24.760;2024-02-14T12:34:00;99511.91;;;11.78;75.44
5753;BME280;2901;42.140;24.760;2024-02-14T12:36:36;99502.41;;;11.74;75.38
5753;BME280;2901;42.140;24.760;2024-02-14T12:39:02;99498.06;;;11.76;75.48
5753;BME280;2901;42.140;24.760;2024-02-14T12:41:28;99509.25;;;11.79;74.25
5753;BME280;2901;42.140;24.760;2024-02-14T12:43:58;99503.13;;;11.88;76.01
5753;BME280;2901;42.140;24.760;2024-02-14T12:46:23;99501.41;;;11.87;77.84
5753;BME280;2901;42.140;24.760;2024-02-14T12:48:49;99494.50;;;11.86;79.69
5753;BME280;2901;42.140;24.760;2024-02-14T12:51:14;99497.03;;;11.89;79.93
5753;BME280;2901;42.140;24.760;2024-02-14T12:53:40;99486.50;;;12.03;79.67
5753;BME280;2901;42.140;24.760;2024-02-14T12:56:06;99490.44;;;12.32;78.75
5753;BME280;2901;42.140;24.760;2024-02-14T12:58:32;99479.91;;;12.41;77.29
5753;BME280;2901;42.140;24.760;2024-02-14T13:00:57;99482.97;;;12.69;76.04
5753;BME280;2901;42.140;24.760;2024-02-14T13:03:24;99484.63;;;12.75;75.12
5753;BME280;2901;42.140;24.760;2024-02-14T13:05:50;99487.81;;;12.92;74.29
5753;BME280;2901;42.140;24.760;2024-02-14T13:08:16;99503.19;;;13.07;72.08